sensor_id;sensor_type;location;lat;lon;timestamp;pressure;altitude;pressure_sealevel;temperature
15626;BMP180;7912;51.376;6.126;2023-12-20T00:02:21;101210.00;;;11.70
15626;BMP180;7912;51.376;6.126;2023-12-20T00:04:48;101225.00;;;11.60
15626;BMP180;7912;51.376;6.126;2023-12-20T00:07:17;101209.00;;;11.60
15626;BMP180;7912;51.376;6.126;2023-12-20T00:09:45;101220.00;;;11.60
15626;BMP180;7912;51.376;6.126;2023-12-20T00:12:12;101211.00;;;11.50
15626;BMP180;7912;51.376;6.126;2023-12-20T00:14:40;101214.00;;;11.50
15626;BMP180;7912;51.376;6.126;2023-12-20T00:17:07;101220.00;;;11.40
15626;BMP180;7912;51.376;6.126;2023-12-20T00:19:34;101210.00;;;11.40
15626;BMP180;7912;51.376;6.126;2023-12-20T00:22:02;101219.00;;;11.30
15626;BMP180;7912;51.376;6.126;2023-12-20T00:24:29;101241.00;;;11.30
15626;BMP180;7912;51.376;6.126;2023-12-20T00:26:57;101244.00;;;11.30
15626;BMP180;7912;51.376;6.126;2023-12-20T00:29:24;101236.00;;;11.30
15626;BMP180;7912;51.376;6.126;2023-12-20T00:31:51;101245.00;;;11.30
15626;BMP180;7912;51.376;6.126;2023-12-20T00:34:18;101231.00;;;11.20
15626;BMP180;7912;51.376;6.126;2023-12-20T00:36:46;101229.00;;;11.20
15626;BMP180;7912;51.376;6.126;2023-12-20T00:39:13;101242.00;;;11.20
15626;BMP180;7912;51.376;6.126;2023-12-20T00:41:41;101251.00;;;11.20
15626;BMP180;7912;51.376;6.126;2023-12-20T00:44:08;101239.00;;;11.10
15626;BMP180;7912;51.376;6.126;2023-12-20T00:46:35;101240.00;;;11.20
15626;BMP180;7912;51.376;6.126;2023-12-20T00:49:02;101255.00;;;11.10
15626;BMP180;7912;51.376;6.126;2023-12-20T00:51:30;101248.00;;;11.10
15626;BMP180;7912;51.376;6.126;2023-12-20T00:54:00;101254.00;;;11.10
15626;BMP180;7912;51.376;6.126;2023-12-20T00:56:27;101249.00;;;11.10
15626;BMP180;7912;51.376;6.126;2023-12-20T00:58:54;101250.00;;;11.00
15626;BMP180;7912;51.376;6.126;2023-12-20T01:01:22;101237.00;;;11.00
15626;BMP180;7912;51.376;6.126;2023-12-20T01:03:49;101240.00;;;11.00
15626;BMP180;7912;51.376;6.126;2023-12-20T01:06:18;101239.00;;;11.00
15626;BMP180;7912;51.376;6.126;2023-12-20T01:08:46;101255.00;;;10.90
15626;BMP180;7912;51.376;6.126;2023-12-20T01:11:13;101251.00;;;10.90
15626;BMP180;7912;51.376;6.126;2023-12-20T01:13:40;101241.00;;;10.90
15626;BMP180;7912;51.376;6.126;2023-12-20T01:16:12;101233.00;;;10.80
15626;BMP180;7912;51.376;6.126;2023-12-20T01:18:39;101236.00;;;10.80
15626;BMP180;7912;51.376;6.126;2023-12-20T01:21:06;101244.00;;;10.70
15626;BMP180;7912;51.376;6.126;2023-12-20T01:23:34;101244.00;;;10.60
15626;BMP180;7912;51.376;6.126;2023-12-20T01:26:01;101244.00;;;10.60
15626;BMP180;7912;51.376;6.126;2023-12-20T01:28:29;101253.00;;;10.50
15626;BMP180;7912;51.376;6.126;2023-12-20T01:30:57;101261.00;;;10.50
15626;BMP180;7912;51.376;6.126;2023-12-20T01:33:25;101259.00;;;10.40
15626;BMP180;7912;51.376;6.126;2023-12-20T01:35:52;101256.00;;;10.40
15626;BMP180;7912;51.376;6.126;2023-12-20T01:38:19;101253.00;;;10.30
15626;BMP180;7912;51.376;6.126;2023-12-20T01:40:49;101259.00;;;10.30
15626;BMP180;7912;51.376;6.126;2023-12-20T01:43:16;101263.00;;;10.30
15626;BMP180;7912;51.376;6.126;2023-12-20T01:45:43;101249.00;;;10.30
15626;BMP180;7912;51.376;6.126;2023-12-20T01:48:11;101252.00;;;10.20
15626;BMP180;7912;51.376;6.126;2023-12-20T01:54:05;101259.00;;;10.10
15626;BMP180;7912;51.376;6.126;2023-12-20T02:00:57;101267.00;;;9.90
15626;BMP180;7912;51.376;6.126;2023-12-20T02:03:25;101271.00;;;9.80
15626;BMP180;7912;51.376;6.126;2023-12-20T02:05:53;101257.00;;;9.80
15626;BMP180;7912;51.376;6.126;2023-12-20T02:08:20;101265.00;;;9.80
15626;BMP180;7912;51.376;6.126;2023-12-20T02:10:48;101268.00;;;9.70
15626;BMP180;7912;51.376;6.126;2023-12-20T02:13:19;101260.00;;;9.70
15626;BMP180;7912;51.376;6.126;2023-12-20T02:15:46;101268.00;;;9.70
15626;BMP180;7912;51.376;6.126;2023-12-20T02:18:14;101264.00;;;9.70
15626;BMP180;7912;51.376;6.126;2023-12-20T02:20:44;101268.00;;;9.60
15626;BMP180;7912;51.376;6.126;2023-12-20T02:23:11;101272.00;;;9.60
15626;BMP180;7912;51.376;6.126;2023-12-20T02:25:39;101280.00;;;9.60
15626;BMP180;7912;51.376;6.126;2023-12-20T02:28:06;101267.00;;;9.50
15626;BMP180;7912;51.376;6.126;2023-12-20T02:30:34;101275.00;;;9.50
15626;BMP180;7912;51.376;6.126;2023-12-20T02:33:07;101266.00;;;9.50
15626;BMP180;7912;51.376;6.126;2023-12-20T02:35:35;101278.00;;;9.40
15626;BMP180;7912;51.376;6.126;2023-12-20T02:38:02;101273.00;;;9.40
15626;BMP180;7912;51.376;6.126;2023-12-20T02:40:30;101268.00;;;9.40
15626;BMP180;7912;51.376;6.126;2023-12-20T02:42:58;101263.00;;;9.40
15626;BMP180;7912;51.376;6.126;2023-12-20T02:45:27;101263.00;;;9.40
15626;BMP180;7912;51.376;6.126;2023-12-20T02:47:55;101268.00;;;9.40
15626;BMP180;7912;51.376;6.126;2023-12-20T02:50:22;101268.00;;;9.40
15626;BMP180;7912;51.376;6.126;2023-12-20T02:52:49;101263.00;;;9.40
15626;BMP180;7912;51.376;6.126;2023-12-20T02:55:17;101261.00;;;9.40
15626;BMP180;7912;51.376;6.126;2023-12-20T02:57:44;101281.00;;;9.30
15626;BMP180;7912;51.376;6.126;2023-12-20T03:00:15;101265.00;;;9.30
15626;BMP180;7912;51.376;6.126;2023-12-20T03:02:43;101275.00;;;9.20
15626;BMP180;7912;51.376;6.126;2023-12-20T03:05:13;101257.00;;;9.20
15626;BMP180;7912;51.376;6.126;2023-12-20T03:07:40;101269.00;;;9.20
15626;BMP180;7912;51.376;6.126;2023-12-20T03:10:08;101248.00;;;9.20
15626;BMP180;7912;51.376;6.126;2023-12-20T03:12:46;101263.00;;;9.20
15626;BMP180;7912;51.376;6.126;2023-12-20T03:15:14;101267.00;;;9.30
15626;BMP180;7912;51.376;6.126;2023-12-20T03:17:44;101255.00;;;9.30
15626;BMP180;7912;51.376;6.126;2023-12-20T03:20:12;101254.00;;;9.30
15626;BMP180;7912;51.376;6.126;2023-12-20T03:22:40;101265.00;;;9.30
15626;BMP180;7912;51.376;6.126;2023-12-20T03:25:08;101260.00;;;9.30
15626;BMP180;7912;51.376;6.126;2023-12-20T03:27:37;101237.00;;;9.30
15626;BMP180;7912;51.376;6.126;2023-12-20T03:30:10;101242.00;;;9.30
15626;BMP180;7912;51.376;6.126;2023-12-20T03:32:38;101239.00;;;9.30
15626;BMP180;7912;51.376;6.126;2023-12-20T03:35:06;101242.00;;;9.20
15626;BMP180;7912;51.376;6.126;2023-12-20T03:37:34;101239.00;;;9.20
15626;BMP180;7912;51.376;6.126;2023-12-20T03:40:03;101246.00;;;9.20
15626;BMP180;7912;51.376;6.126;2023-12-20T03:42:31;101242.00;;;9.20
15626;BMP180;7912;51.376;6.126;2023-12-20T03:44:58;101240.00;;;9.30
15626;BMP180;7912;51.376;6.126;2023-12-20T03:47:25;101234.00;;;9.20
15626;BMP180;7912;51.376;6.126;2023-12-20T03:49:53;101239.00;;;9.20
15626;BMP180;7912;51.376;6.126;2023-12-20T03:52:20;101248.00;;;9.20
15626;BMP180;7912;51.376;6.126;2023-12-20T03:54:49;101251.00;;;9.30
15626;BMP180;7912;51.376;6.126;2023-12-20T03:57:16;101230.00;;;9.30
15626;BMP180;7912;51.376;6.126;2023-12-20T03:59:43;101237.00;;;9.20
15626;BMP180;7912;51.376;6.126;2023-12-20T04:02:11;101225.00;;;9.30
15626;BMP180;7912;51.376;6.126;2023-12-20T04:04:38;101229.00;;;9.30
15626;BMP180;7912;51.376;6.126;2023-12-20T04:07:06;101230.00;;;9.30
15626;BMP180;7912;51.376;6.126;2023-12-20T04:09:33;101238.00;;;9.30
15626;BMP180;7912;51.376;6.126;2023-12-20T04:12:01;101238.00;;;9.40
15626;BMP180;7912;51.376;6.126;2023-12-20T04:14:29;101251.00;;;9.40
15626;BMP180;7912;51.376;6.126;2023-12-20T04:16:57;101264.00;;;9.40
15626;BMP180;7912;51.376;6.126;2023-12-20T04:19:24;101246.00;;;9.50
15626;BMP180;7912;51.376;6.126;2023-12-20T04:21:52;101255.00;;;9.50
15626;BMP180;7912;51.376;6.126;2023-12-20T04:24:19;101244.00;;;9.50
15626;BMP180;7912;51.376;6.126;2023-12-20T04:26:47;101253.00;;;9.60
15626;BMP180;7912;51.376;6.126;2023-12-20T04:29:14;101241.00;;;9.60
15626;BMP180;7912;51.376;6.126;2023-12-20T04:31:41;101244.00;;;9.60
15626;BMP180;7912;51.376;6.126;2023-12-20T04:34:14;101251.00;;;9.60
15626;BMP180;7912;51.376;6.126;2023-12-20T04:36:41;101257.00;;;9.60
15626;BMP180;7912;51.376;6.126;2023-12-20T04:39:11;101247.00;;;9.60
15626;BMP180;7912;51.376;6.126;2023-12-20T04:41:38;101255.00;;;9.60
15626;BMP180;7912;51.376;6.126;2023-12-20T04:44:06;101256.00;;;9.70
15626;BMP180;7912;51.376;6.126;2023-12-20T04:46:33;101255.00;;;9.70
15626;BMP180;7912;51.376;6.126;2023-12-20T04:49:01;101248.00;;;9.70
15626;BMP180;7912;51.376;6.126;2023-12-20T04:51:28;101250.00;;;9.70
15626;BMP180;7912;51.376;6.126;2023-12-20T04:53:56;101232.00;;;9.70
15626;BMP180;7912;51.376;6.126;2023-12-20T04:56:24;101237.00;;;9.80
15626;BMP180;7912;51.376;6.126;2023-12-20T04:58:51;101248.00;;;9.80
15626;BMP180;7912;51.376;6.126;2023-12-20T05:01:20;101235.00;;;9.80
15626;BMP180;7912;51.376;6.126;2023-12-20T05:03:48;101236.00;;;9.80
15626;BMP180;7912;51.376;6.126;2023-12-20T05:06:15;101237.00;;;9.90
15626;BMP180;7912;51.376;6.126;2023-12-20T05:08:43;101233.00;;;9.90
15626;BMP180;7912;51.376;6.126;2023-12-20T05:11:10;101243.00;;;9.90
15626;BMP180;7912;51.376;6.126;2023-12-20T05:13:40;101249.00;;;9.90
15626;BMP180;7912;51.376;6.126;2023-12-20T05:16:15;101249.00;;;9.90
15626;BMP180;7912;51.376;6.126;2023-12-20T05:18:48;101235.00;;;9.90
15626;BMP180;7912;51.376;6.126;2023-12-20T05:21:17;101242.00;;;10.00
15626;BMP180;7912;51.376;6.126;2023-12-20T05:24:05;101232.00;;;10.00
15626;BMP180;7912;51.376;6.126;2023-12-20T05:30:32;101216.00;;;10.00
15626;BMP180;7912;51.376;6.126;2023-12-20T05:33:00;101218.00;;;10.00
15626;BMP180;7912;51.376;6.126;2023-12-20T05:35:27;101204.00;;;10.00
15626;BMP180;7912;51.376;6.126;2023-12-20T05:37:54;101212.00;;;10.10
15626;BMP180;7912;51.376;6.126;2023-12-20T05:40:22;101204.00;;;10.10
15626;BMP180;7912;51.376;6.126;2023-12-20T05:42:49;101217.00;;;10.10
15626;BMP180;7912;51.376;6.126;2023-12-20T05:45:16;101212.00;;;10.10
15626;BMP180;7912;51.376;6.126;2023-12-20T05:47:43;101217.00;;;10.20
15626;BMP180;7912;51.376;6.126;2023-12-20T05:50:11;101224.00;;;10.20
15626;BMP180;7912;51.376;6.126;2023-12-20T05:52:39;101221.00;;;10.20
15626;BMP180;7912;51.376;6.126;2023-12-20T05:55:06;101226.00;;;10.20
15626;BMP180;7912;51.376;6.126;2023-12-20T05:57:35;101220.00;;;10.20
15626;BMP180;7912;51.376;6.126;2023-12-20T06:00:02;101217.00;;;10.20
15626;BMP180;7912;51.376;6.126;2023-12-20T06:02:32;101226.00;;;10.20
15626;BMP180;7912;51.376;6.126;2023-12-20T06:05:00;101216.00;;;10.30
15626;BMP180;7912;51.376;6.126;2023-12-20T06:07:27;101213.00;;;10.30
15626;BMP180;7912;51.376;6.126;2023-12-20T06:09:54;101219.00;;;10.30
15626;BMP180;7912;51.376;6.126;2023-12-20T06:12:22;101231.00;;;10.30
15626;BMP180;7912;51.376;6.126;2023-12-20T06:14:49;101232.00;;;10.30
15626;BMP180;7912;51.376;6.126;2023-12-20T06:17:16;101230.00;;;10.30
15626;BMP180;7912;51.376;6.126;2023-12-20T06:19:43;101241.00;;;10.30
15626;BMP180;7912;51.376;6.126;2023-12-20T06:22:12;101247.00;;;10.40
15626;BMP180;7912;51.376;6.126;2023-12-20T06:24:39;101241.00;;;10.40
15626;BMP180;7912;51.376;6.126;2023-12-20T06:27:07;101246.00;;;10.40
15626;BMP180;7912;51.376;6.126;2023-12-20T06:29:34;101249.00;;;10.40
15626;BMP180;7912;51.376;6.126;2023-12-20T06:32:02;101242.00;;;10.40
15626;BMP180;7912;51.376;6.126;2023-12-20T06:34:29;101258.00;;;10.40
15626;BMP180;7912;51.376;6.126;2023-12-20T06:36:56;101245.00;;;10.40
15626;BMP180;7912;51.376;6.126;2023-12-20T06:39:24;101247.00;;;10.40
15626;BMP180;7912;51.376;6.126;2023-12-20T06:41:51;101247.00;;;10.40
15626;BMP180;7912;51.376;6.126;2023-12-20T06:44:18;101243.00;;;10.40
15626;BMP180;7912;51.376;6.126;2023-12-20T06:46:46;101246.00;;;10.50
15626;BMP180;7912;51.376;6.126;2023-12-20T06:49:13;101228.00;;;10.50
15626;BMP180;7912;51.376;6.126;2023-12-20T06:51:41;101242.00;;;10.50
15626;BMP180;7912;51.376;6.126;2023-12-20T06:54:08;101236.00;;;10.50
15626;BMP180;7912;51.376;6.126;2023-12-20T06:56:35;101239.00;;;10.50
15626;BMP180;7912;51.376;6.126;2023-12-20T06:59:02;101222.00;;;10.50
15626;BMP180;7912;51.376;6.126;2023-12-20T07:01:36;101233.00;;;10.50
15626;BMP180;7912;51.376;6.126;2023-12-20T07:04:03;101252.00;;;10.50
15626;BMP180;7912;51.376;6.126;2023-12-20T07:06:31;101242.00;;;10.50
15626;BMP180;7912;51.376;6.126;2023-12-20T07:08:58;101239.00;;;10.50
15626;BMP180;7912;51.376;6.126;2023-12-20T07:11:25;101232.00;;;10.50
15626;BMP180;7912;51.376;6.126;2023-12-20T07:13:56;101227.00;;;10.50
15626;BMP180;7912;51.376;6.126;2023-12-20T07:16:23;101241.00;;;10.50
15626;BMP180;7912;51.376;6.126;2023-12-20T07:18:52;101233.00;;;10.50
15626;BMP180;7912;51.376;6.126;2023-12-20T07:21:20;101255.00;;;10.50
15626;BMP180;7912;51.376;6.126;2023-12-20T07:23:49;101244.00;;;10.50
15626;BMP180;7912;51.376;6.126;2023-12-20T07:26:35;101245.00;;;10.50
15626;BMP180;7912;51.376;6.126;2023-12-20T07:29:04;101244.00;;;10.50
15626;BMP180;7912;51.376;6.126;2023-12-20T07:31:32;101242.00;;;10.50
15626;BMP180;7912;51.376;6.126;2023-12-20T07:33:59;101245.00;;;10.50
15626;BMP180;7912;51.376;6.126;2023-12-20T07:36:27;101248.00;;;10.40
15626;BMP180;7912;51.376;6.126;2023-12-20T07:38:54;101239.00;;;10.40
15626;BMP180;7912;51.376;6.126;2023-12-20T07:41:21;101252.00;;;10.40
15626;BMP180;7912;51.376;6.126;2023-12-20T07:43:50;101246.00;;;10.40
15626;BMP180;7912;51.376;6.126;2023-12-20T07:46:18;101246.00;;;10.40
15626;BMP180;7912;51.376;6.126;2023-12-20T07:48:51;101244.00;;;10.30
15626;BMP180;7912;51.376;6.126;2023-12-20T07:51:19;101248.00;;;10.30
15626;BMP180;7912;51.376;6.126;2023-12-20T07:53:48;101244.00;;;10.30
15626;BMP180;7912;51.376;6.126;2023-12-20T07:56:17;101235.00;;;10.30
15626;BMP180;7912;51.376;6.126;2023-12-20T07:58:45;101256.00;;;10.30
15626;BMP180;7912;51.376;6.126;2023-12-20T08:01:19;101244.00;;;10.30
15626;BMP180;7912;51.376;6.126;2023-12-20T08:03:49;101249.00;;;10.30
15626;BMP180;7912;51.376;6.126;2023-12-20T08:06:17;101250.00;;;10.30
15626;BMP180;7912;51.376;6.126;2023-12-20T08:09:04;101239.00;;;10.30
15626;BMP180;7912;51.376;6.126;2023-12-20T08:11:33;101246.00;;;10.30
15626;BMP180;7912;51.376;6.126;2023-12-20T08:14:00;101233.00;;;10.30
15626;BMP180;7912;51.376;6.126;2023-12-20T08:16:27;101252.00;;;10.30
15626;BMP180;7912;51.376;6.126;2023-12-20T08:18:55;101238.00;;;10.30
15626;BMP180;7912;51.376;6.126;2023-12-20T08:21:22;101241.00;;;10.40
15626;BMP180;7912;51.376;6.126;2023-12-20T08:23:50;101260.00;;;10.40
15626;BMP180;7912;51.376;6.126;2023-12-20T08:26:19;101250.00;;;10.40
15626;BMP180;7912;51.376;6.126;2023-12-20T08:28:50;101265.00;;;10.40
15626;BMP180;7912;51.376;6.126;2023-12-20T08:31:18;101257.00;;;10.40
15626;BMP180;7912;51.376;6.126;2023-12-20T08:33:48;101259.00;;;10.40
15626;BMP180;7912;51.376;6.126;2023-12-20T08:36:15;101261.00;;;10.40
15626;BMP180;7912;51.376;6.126;2023-12-20T08:38:44;101260.00;;;10.40
15626;BMP180;7912;51.376;6.126;2023-12-20T08:41:12;101259.00;;;10.40
15626;BMP180;7912;51.376;6.126;2023-12-20T08:43:39;101275.00;;;10.50
15626;BMP180;7912;51.376;6.126;2023-12-20T08:46:07;101259.00;;;10.50
15626;BMP180;7912;51.376;6.126;2023-12-20T08:48:36;101263.00;;;10.50
15626;BMP180;7912;51.376;6.126;2023-12-20T08:51:05;101261.00;;;10.50
15626;BMP180;7912;51.376;6.126;2023-12-20T08:53:35;101245.00;;;10.50
15626;BMP180;7912;51.376;6.126;2023-12-20T08:56:03;101246.00;;;10.60
15626;BMP180;7912;51.376;6.126;2023-12-20T08:58:33;101251.00;;;10.60
15626;BMP180;7912;51.376;6.126;2023-12-20T09:01:03;101241.00;;;10.60
15626;BMP180;7912;51.376;6.126;2023-12-20T09:07:23;101231.00;;;10.70
15626;BMP180;7912;51.376;6.126;2023-12-20T09:09:52;101225.00;;;10.70
15626;BMP180;7912;51.376;6.126;2023-12-20T09:12:20;101224.00;;;10.80
15626;BMP180;7912;51.376;6.126;2023-12-20T09:14:49;101224.00;;;10.80
15626;BMP180;7912;51.376;6.126;2023-12-20T09:25:37;101222.00;;;10.90
15626;BMP180;7912;51.376;6.126;2023-12-20T09:28:05;101222.00;;;11.00
15626;BMP180;7912;51.376;6.126;2023-12-20T09:30:32;101244.00;;;11.00
15626;BMP180;7912;51.376;6.126;2023-12-20T09:33:00;101241.00;;;11.10
15626;BMP180;7912;51.376;6.126;2023-12-20T09:35:28;101232.00;;;11.10
15626;BMP180;7912;51.376;6.126;2023-12-20T09:37:55;101230.00;;;11.20
15626;BMP180;7912;51.376;6.126;2023-12-20T09:40:26;101245.00;;;11.20
15626;BMP180;7912;51.376;6.126;2023-12-20T09:43:03;101232.00;;;11.20
15626;BMP180;7912;51.376;6.126;2023-12-20T09:45:31;101225.00;;;11.20
15626;BMP180;7912;51.376;6.126;2023-12-20T09:47:59;101225.00;;;11.30
15626;BMP180;7912;51.376;6.126;2023-12-20T09:50:27;101224.00;;;11.30
15626;BMP180;7912;51.376;6.126;2023-12-20T09:52:58;101225.00;;;11.20
15626;BMP180;7912;51.376;6.126;2023-12-20T09:55:29;101231.00;;;11.30
15626;BMP180;7912;51.376;6.126;2023-12-20T09:57:59;101229.00;;;11.30
15626;BMP180;7912;51.376;6.126;2023-12-20T10:00:26;101236.00;;;11.30
15626;BMP180;7912;51.376;6.126;2023-12-20T10:02:59;101237.00;;;11.30
15626;BMP180;7912;51.376;6.126;2023-12-20T10:05:31;101230.00;;;11.30
15626;BMP180;7912;51.376;6.126;2023-12-20T10:08:00;101236.00;;;11.30
15626;BMP180;7912;51.376;6.126;2023-12-20T10:10:29;101226.00;;;11.30
15626;BMP180;7912;51.376;6.126;2023-12-20T10:13:12;101218.00;;;11.30
15626;BMP180;7912;51.376;6.126;2023-12-20T10:15:41;101215.00;;;11.40
15626;BMP180;7912;51.376;6.126;2023-12-20T10:18:11;101224.00;;;11.40
15626;BMP180;7912;51.376;6.126;2023-12-20T10:20:41;101211.00;;;11.40
15626;BMP180;7912;51.376;6.126;2023-12-20T10:23:11;101209.00;;;11.40
15626;BMP180;7912;51.376;6.126;2023-12-20T10:25:39;101210.00;;;11.50
15626;BMP180;7912;51.376;6.126;2023-12-20T10:28:16;101213.00;;;11.50
15626;BMP180;7912;51.376;6.126;2023-12-20T10:30:50;101218.00;;;11.50
15626;BMP180;7912;51.376;6.126;2023-12-20T10:33:29;101217.00;;;11.50
15626;BMP180;7912;51.376;6.126;2023-12-20T10:35:58;101212.00;;;11.60
15626;BMP180;7912;51.376;6.126;2023-12-20T10:38:25;101216.00;;;11.50
15626;BMP180;7912;51.376;6.126;2023-12-20T10:40:57;101199.00;;;11.50
15626;BMP180;7912;51.376;6.126;2023-12-20T10:43:28;101202.00;;;11.50
15626;BMP180;7912;51.376;6.126;2023-12-20T10:45:57;101201.00;;;11.50
15626;BMP180;7912;51.376;6.126;2023-12-20T10:48:25;101219.00;;;11.50
15626;BMP180;7912;51.376;6.126;2023-12-20T10:50:58;101205.00;;;11.60
15626;BMP180;7912;51.376;6.126;2023-12-20T10:53:25;101195.00;;;11.60
15626;BMP180;7912;51.376;6.126;2023-12-20T10:55:55;101201.00;;;11.60
15626;BMP180;7912;51.376;6.126;2023-12-20T10:58:28;101196.00;;;11.70
15626;BMP180;7912;51.376;6.126;2023-12-20T11:01:01;101195.00;;;11.70
15626;BMP180;7912;51.376;6.126;2023-12-20T11:03:37;101193.00;;;11.70
15626;BMP180;7912;51.376;6.126;2023-12-20T11:06:35;101193.00;;;11.70
15626;BMP180;7912;51.376;6.126;2023-12-20T11:09:43;101187.00;;;11.70
15626;BMP180;7912;51.376;6.126;2023-12-20T11:12:20;101183.00;;;11.70
15626;BMP180;7912;51.376;6.126;2023-12-20T11:14:54;101178.00;;;11.80
15626;BMP180;7912;51.376;6.126;2023-12-20T11:17:27;101170.00;;;11.80
15626;BMP180;7912;51.376;6.126;2023-12-20T11:22:30;101178.00;;;11.90
15626;BMP180;7912;51.376;6.126;2023-12-20T11:25:10;101164.00;;;12.00
15626;BMP180;7912;51.376;6.126;2023-12-20T11:27:42;101164.00;;;12.00
15626;BMP180;7912;51.376;6.126;2023-12-20T11:30:14;101176.00;;;12.10
15626;BMP180;7912;51.376;6.126;2023-12-20T11:32:41;101155.00;;;12.10
15626;BMP180;7912;51.376;6.126;2023-12-20T11:37:41;101155.00;;;12.10
15626;BMP180;7912;51.376;6.126;2023-12-20T11:40:17;101154.00;;;12.10
15626;BMP180;7912;51.376;6.126;2023-12-20T11:42:54;101163.00;;;12.10
15626;BMP180;7912;51.376;6.126;2023-12-20T11:45:24;101168.00;;;12.00
15626;BMP180;7912;51.376;6.126;2023-12-20T11:47:57;101159.00;;;12.00
15626;BMP180;7912;51.376;6.126;2023-12-20T11:50:25;101158.00;;;12.00
15626;BMP180;7912;51.376;6.126;2023-12-20T11:52:55;101144.00;;;12.00
15626;BMP180;7912;51.376;6.126;2023-12-20T11:55:23;101141.00;;;11.90
15626;BMP180;7912;51.376;6.126;2023-12-20T11:57:51;101151.00;;;11.90
15626;BMP180;7912;51.376;6.126;2023-12-20T12:00:19;101144.00;;;11.90
15626;BMP180;7912;51.376;6.126;2023-12-20T12:02:58;101136.00;;;11.90
15626;BMP180;7912;51.376;6.126;2023-12-20T12:05:31;101134.00;;;11.90
15626;BMP180;7912;51.376;6.126;2023-12-20T12:07:59;101145.00;;;11.90
15626;BMP180;7912;51.376;6.126;2023-12-20T12:10:27;101134.00;;;11.90
15626;BMP180;7912;51.376;6.126;2023-12-20T12:25:17;101142.00;;;11.60
15626;BMP180;7912;51.376;6.126;2023-12-20T12:27:47;101141.00;;;11.50
15626;BMP180;7912;51.376;6.126;2023-12-20T12:30:16;101139.00;;;11.50
15626;BMP180;7912;51.376;6.126;2023-12-20T12:32:46;101122.00;;;11.50
15626;BMP180;7912;51.376;6.126;2023-12-20T12:35:14;101129.00;;;11.40
15626;BMP180;7912;51.376;6.126;2023-12-20T12:37:42;101119.00;;;11.50
15626;BMP180;7912;51.376;6.126;2023-12-20T12:40:15;101103.00;;;11.50
15626;BMP180;7912;51.376;6.126;2023-12-20T12:42:45;101109.00;;;11.50
15626;BMP180;7912;51.376;6.126;2023-12-20T12:45:13;101112.00;;;11.50
15626;BMP180;7912;51.376;6.126;2023-12-20T12:47:40;101103.00;;;11.60
15626;BMP180;7912;51.376;6.126;2023-12-20T12:50:08;101099.00;;;11.60
15626;BMP180;7912;51.376;6.126;2023-12-20T12:52:36;101085.00;;;11.50
15626;BMP180;7912;51.376;6.126;2023-12-20T12:55:05;101093.00;;;11.50
15626;BMP180;7912;51.376;6.126;2023-12-20T12:57:33;101109.00;;;11.50
15626;BMP180;7912;51.376;6.126;2023-12-20T13:00:05;101106.00;;;11.50
15626;BMP180;7912;51.376;6.126;2023-12-20T13:02:35;101096.00;;;11.50
15626;BMP180;7912;51.376;6.126;2023-12-20T13:05:05;101099.00;;;11.50
15626;BMP180;7912;51.376;6.126;2023-12-20T13:07:33;101092.00;;;11.40
15626;BMP180;7912;51.376;6.126;2023-12-20T13:10:01;101088.00;;;11.40
15626;BMP180;7912;51.376;6.126;2023-12-20T13:12:28;101081.00;;;11.40
15626;BMP180;7912;51.376;6.126;2023-12-20T13:14:59;101087.00;;;11.40
15626;BMP180;7912;51.376;6.126;2023-12-20T13:17:27;101077.00;;;11.40
15626;BMP180;7912;51.376;6.126;2023-12-20T13:19:57;101074.00;;;11.40
15626;BMP180;7912;51.376;6.126;2023-12-20T13:22:28;101071.00;;;11.40
15626;BMP180;7912;51.376;6.126;2023-12-20T13:24:56;101061.00;;;11.40
15626;BMP180;7912;51.376;6.126;2023-12-20T13:27:24;101059.00;;;11.40
15626;BMP180;7912;51.376;6.126;2023-12-20T13:29:54;101058.00;;;11.40
15626;BMP180;7912;51.376;6.126;2023-12-20T13:32:39;101039.00;;;11.40
15626;BMP180;7912;51.376;6.126;2023-12-20T13:35:07;101035.00;;;11.40
15626;BMP180;7912;51.376;6.126;2023-12-20T13:37:39;101023.00;;;11.40
15626;BMP180;7912;51.376;6.126;2023-12-20T13:40:10;101016.00;;;11.40
15626;BMP180;7912;51.376;6.126;2023-12-20T13:42:39;101026.00;;;11.40
15626;BMP180;7912;51.376;6.126;2023-12-20T13:45:08;101019.00;;;11.40
15626;BMP180;7912;51.376;6.126;2023-12-20T13:47:38;101021.00;;;11.50
15626;BMP180;7912;51.376;6.126;2023-12-20T13:50:11;101034.00;;;11.40
15626;BMP180;7912;51.376;6.126;2023-12-20T13:52:47;101013.00;;;11.50
15626;BMP180;7912;51.376;6.126;2023-12-20T13:55:20;101016.00;;;11.50
15626;BMP180;7912;51.376;6.126;2023-12-20T13:57:52;101023.00;;;11.50
15626;BMP180;7912;51.376;6.126;2023-12-20T14:00:27;101015.00;;;11.50
15626;BMP180;7912;51.376;6.126;2023-12-20T14:02:54;101020.00;;;11.60
15626;BMP180;7912;51.376;6.126;2023-12-20T14:05:22;101025.00;;;11.60
15626;BMP180;7912;51.376;6.126;2023-12-20T14:12:05;100973.00;;;11.50
15626;BMP180;7912;51.376;6.126;2023-12-20T14:14:34;101005.00;;;11.50
15626;BMP180;7912;51.376;6.126;2023-12-20T14:17:04;100992.00;;;11.50
15626;BMP180;7912;51.376;6.126;2023-12-20T14:19:38;100990.00;;;11.60
15626;BMP180;7912;51.376;6.126;2023-12-20T14:22:14;100985.00;;;11.60
15626;BMP180;7912;51.376;6.126;2023-12-20T14:24:44;100999.00;;;11.60
15626;BMP180;7912;51.376;6.126;2023-12-20T14:27:16;101001.00;;;11.70
15626;BMP180;7912;51.376;6.126;2023-12-20T14:29:47;100992.00;;;11.70
15626;BMP180;7912;51.376;6.126;2023-12-20T14:32:42;100993.00;;;11.70
15626;BMP180;7912;51.376;6.126;2023-12-20T14:35:10;101001.00;;;11.80
15626;BMP180;7912;51.376;6.126;2023-12-20T14:37:38;101007.00;;;11.80
15626;BMP180;7912;51.376;6.126;2023-12-20T14:40:08;100992.00;;;11.80
15626;BMP180;7912;51.376;6.126;2023-12-20T14:42:46;101013.00;;;11.80
15626;BMP180;7912;51.376;6.126;2023-12-20T14:45:15;100990.00;;;11.80
15626;BMP180;7912;51.376;6.126;2023-12-20T14:47:43;101006.00;;;11.80
15626;BMP180;7912;51.376;6.126;2023-12-20T14:50:12;101013.00;;;11.80
15626;BMP180;7912;51.376;6.126;2023-12-20T14:52:45;101004.00;;;11.80
15626;BMP180;7912;51.376;6.126;2023-12-20T14:55:13;101006.00;;;11.80
15626;BMP180;7912;51.376;6.126;2023-12-20T14:57:41;101006.00;;;11.80
15626;BMP180;7912;51.376;6.126;2023-12-20T15:00:09;100999.00;;;11.80
15626;BMP180;7912;51.376;6.126;2023-12-20T15:02:37;101013.00;;;11.80
15626;BMP180;7912;51.376;6.126;2023-12-20T15:05:04;101018.00;;;11.80
15626;BMP180;7912;51.376;6.126;2023-12-20T15:07:32;101011.00;;;11.80
15626;BMP180;7912;51.376;6.126;2023-12-20T15:10:00;101024.00;;;11.80